createdAt,value
2022-11-12T00:05:51.722Z,26.92
2022-11-12T00:08:38.059Z,23.23
2022-11-12T00:11:24.261Z,25.00
2022-11-12T00:14:10.618Z,24.67
2022-11-12T00:16:57.378Z,26.08
2022-11-12T00:19:43.644Z,22.52
2022-11-12T00:22:29.999Z,37.05
2022-11-12T00:25:16.381Z,46.25
2022-11-12T00:28:08.650Z,33.65
2022-11-12T00:30:54.929Z,27.30
2022-11-12T00:33:42.961Z,27.88
2022-11-12T00:36:29.801Z,25.83
2022-11-12T00:39:16.255Z,28.05
2022-11-12T00:42:02.490Z,30.17
2022-11-12T00:44:50.160Z,19.60
2022-11-12T00:47:36.525Z,44.67
2022-11-12T00:50:23.220Z,28.30
2022-11-12T00:53:09.734Z,26.33
2022-11-12T00:56:05.453Z,23.60
2022-11-12T00:58:51.895Z,23.58
2022-11-12T01:01:38.088Z,24.45
2022-11-12T01:04:24.495Z,27.30
2022-11-12T01:07:11.135Z,45.85
2022-11-12T01:09:57.298Z,33.60
2022-11-12T01:12:43.842Z,35.25
2022-11-12T01:15:30.432Z,25.75
2022-11-12T01:18:16.958Z,21.70
2022-11-12T01:21:06.472Z,22.50
2022-11-12T01:23:53.236Z,22.05
2022-11-12T01:26:40.734Z,20.40
2022-11-12T01:29:27.019Z,20.80
2022-11-12T01:32:13.596Z,22.48
2022-11-12T01:35:00.127Z,20.67
2022-11-12T01:37:46.992Z,18.55
2022-11-12T01:40:33.524Z,17.55
2022-11-12T01:43:19.662Z,18.65
2022-11-12T01:46:27.695Z,20.95
2022-11-12T01:49:24.526Z,21.42
2022-11-12T01:52:17.799Z,20.65
2022-11-12T01:55:24.055Z,16.17
2022-11-12T01:58:15.915Z,12.27
2022-11-12T02:01:03.577Z,14.32
2022-11-12T02:03:50.082Z,13.95
2022-11-12T02:06:40.425Z,16.00
2022-11-12T02:09:27.889Z,14.32
2022-11-12T02:12:35.255Z,14.27
2022-11-12T02:15:23.198Z,16.10
2022-11-12T02:18:09.668Z,14.57
2022-11-12T02:20:58.614Z,21.67
2022-11-12T02:23:45.111Z,16.70
2022-11-12T02:26:37.123Z,14.00
2022-11-12T02:29:23.342Z,13.43
2022-11-12T02:32:09.858Z,12.82
2022-11-12T02:34:56.137Z,22.98
2022-11-12T02:37:43.234Z,25.90
2022-11-12T02:40:29.552Z,19.95
2022-11-12T02:43:15.792Z,15.32
2022-11-12T02:46:02.441Z,19.77
2022-11-12T02:48:48.930Z,12.70
2022-11-12T02:51:35.355Z,13.75
2022-11-12T02:54:21.938Z,15.45
2022-11-12T02:57:08.538Z,10.75
2022-11-12T03:02:06.131Z,9.15
2022-11-12T03:04:52.393Z,9.50
2022-11-12T03:07:39.212Z,9.95
2022-11-12T03:10:27.448Z,10.88
2022-11-12T03:13:13.687Z,9.18
2022-11-12T03:16:01.265Z,11.27
2022-11-12T03:21:33.955Z,9.75
2022-11-12T03:24:20.262Z,10.52
2022-11-12T03:27:06.786Z,21.60
2022-11-12T03:29:52.990Z,26.70
2022-11-12T03:32:39.302Z,28.27
2022-11-12T03:35:26.974Z,36.28
2022-11-12T03:38:13.513Z,33.78
2022-11-12T03:40:59.724Z,23.52
2022-11-12T03:43:46.293Z,20.85
2022-11-12T03:46:32.418Z,18.15
2022-11-12T03:49:19.043Z,16.02
2022-11-12T03:52:06.428Z,14.48
2022-11-12T03:54:54.318Z,12.00
2022-11-12T03:57:40.570Z,11.60
2022-11-12T04:00:38.631Z,20.55
2022-11-12T04:03:25.049Z,30.65
2022-11-12T04:06:29.724Z,12.35
2022-11-12T04:09:16.243Z,11.40
2022-11-12T04:12:22.547Z,8.23
2022-11-12T04:15:09.128Z,11.48
2022-11-12T04:18:14.222Z,20.15
2022-11-12T04:21:19.396Z,14.02
2022-11-12T04:24:06.211Z,9.45
2022-11-12T04:26:52.705Z,28.00
2022-11-12T04:30:17.588Z,34.03
2022-11-12T04:33:03.989Z,27.30
2022-11-12T04:35:50.340Z,13.45
2022-11-12T04:38:36.585Z,12.07
2022-11-12T04:41:41.258Z,19.08
2022-11-12T04:44:46.583Z,23.88
2022-11-12T04:47:39.073Z,17.90
2022-11-12T04:50:25.627Z,25.17
2022-11-12T04:53:11.954Z,11.98
2022-11-12T04:56:00.145Z,14.07
2022-11-12T04:58:46.735Z,14.00
2022-11-12T05:01:33.033Z,14.10
2022-11-12T05:04:19.965Z,26.63
2022-11-12T05:07:07.137Z,34.13
2022-11-12T05:09:53.906Z,25.10
2022-11-12T05:12:40.256Z,21.15
2022-11-12T05:15:26.986Z,30.17
2022-11-12T05:18:13.641Z,50.83
2022-11-12T05:21:19.929Z,22.02
2022-11-12T05:24:06.938Z,19.35
2022-11-12T05:26:54.316Z,14.70
2022-11-12T05:29:41.638Z,13.55
2022-11-12T05:32:28.517Z,12.02
2022-11-12T05:35:15.178Z,11.23
2022-11-12T05:38:01.503Z,11.77
2022-11-12T05:40:48.123Z,25.02
2022-11-12T05:43:34.558Z,22.30
2022-11-12T05:46:21.041Z,28.10
2022-11-12T05:49:08.061Z,31.77
2022-11-12T05:51:54.378Z,27.75
2022-11-12T05:54:40.561Z,23.08
2022-11-12T05:57:28.013Z,12.75
2022-11-12T06:03:28.066Z,86.95
2022-11-12T06:06:14.615Z,55.33
2022-11-12T06:09:01.315Z,57.33
2022-11-12T06:11:47.789Z,68.68
2022-11-12T06:14:34.177Z,61.97
2022-11-12T06:17:21.763Z,36.75
2022-11-12T06:20:08.647Z,26.50
2022-11-12T06:22:55.007Z,20.13
2022-11-12T06:25:41.440Z,22.27
2022-11-12T06:28:28.861Z,23.45
2022-11-12T06:31:16.452Z,21.50
2022-11-12T06:34:03.478Z,25.70
2022-11-12T06:36:49.692Z,28.52
2022-11-12T06:39:36.297Z,21.33
2022-11-12T06:42:23.133Z,23.85
2022-11-12T06:45:10.326Z,54.13
2022-11-12T06:48:00.077Z,59.00
2022-11-12T06:50:46.384Z,69.43
2022-11-12T06:53:32.681Z,67.57
2022-11-12T06:56:19.046Z,57.92
2022-11-12T06:59:05.348Z,43.33
2022-11-12T07:01:51.935Z,41.20
2022-11-12T07:04:38.453Z,39.65
2022-11-12T07:07:25.020Z,36.00
2022-11-12T07:10:11.364Z,36.65
2022-11-12T07:12:57.660Z,40.58
2022-11-12T07:15:44.082Z,39.97
2022-11-12T07:18:31.047Z,54.20
2022-11-12T07:21:20.311Z,57.72
2022-11-12T07:24:07.341Z,76.45
2022-11-12T07:26:53.986Z,70.55
2022-11-12T07:29:47.895Z,63.72
2022-11-12T07:32:40.110Z,53.10
2022-11-12T07:35:30.261Z,48.85
2022-11-12T07:38:16.866Z,60.72
2022-11-12T07:41:06.070Z,42.25
2022-11-12T07:43:54.020Z,40.10
2022-11-12T07:46:40.437Z,40.08
2022-11-12T07:49:26.670Z,32.42
2022-11-12T07:52:12.844Z,34.40
2022-11-12T07:54:59.246Z,72.40
2022-11-12T07:57:45.439Z,71.53
2022-11-12T08:00:32.371Z,75.60
2022-11-12T08:03:20.317Z,62.83
2022-11-12T08:06:07.337Z,54.90
2022-11-12T08:08:58.196Z,39.80
2022-11-12T08:11:44.818Z,42.83
2022-11-12T08:14:31.292Z,41.95
2022-11-12T08:17:18.109Z,45.47
2022-11-12T08:20:05.319Z,50.85
2022-11-12T08:22:52.114Z,32.83
2022-11-12T08:25:38.634Z,38.00
2022-11-12T08:28:25.311Z,35.80
2022-11-12T08:31:21.297Z,72.85
2022-11-12T08:34:19.975Z,44.85
2022-11-12T08:37:08.998Z,41.85
2022-11-12T08:39:55.536Z,39.30
2022-11-12T08:42:42.797Z,35.00
2022-11-12T08:45:31.858Z,36.38
2022-11-12T08:48:18.768Z,36.60
2022-11-12T08:51:06.511Z,22.95
2022-11-12T08:53:53.177Z,11.57
2022-11-12T08:56:40.285Z,20.27
2022-11-12T08:59:26.665Z,24.17
2022-11-12T09:02:14.428Z,8.18
2022-11-12T09:05:01.347Z,13.45
2022-11-12T09:10:38.810Z,10.68
2022-11-12T09:13:25.196Z,8.05
2022-11-12T09:16:12.079Z,21.92
2022-11-12T09:18:58.453Z,11.88
2022-11-12T09:21:44.818Z,11.27
2022-11-12T09:24:31.821Z,12.65
2022-11-12T09:27:18.995Z,8.05
2022-11-12T09:30:06.993Z,11.32
2022-11-12T09:32:59.022Z,8.88
2022-11-12T09:35:46.449Z,18.52
2022-11-12T09:38:33.380Z,19.77
2022-11-12T09:41:34.981Z,14.32
2022-11-12T09:44:24.630Z,8.50
2022-11-12T09:47:50.646Z,9.23
2022-11-12T09:50:43.154Z,9.40
2022-11-12T09:53:44.042Z,9.15
2022-11-12T09:56:31.817Z,12.10
2022-11-12T09:59:19.078Z,14.48
2022-11-12T10:02:27.821Z,10.05
2022-11-12T10:05:26.016Z,8.75
2022-11-12T10:08:56.850Z,10.32
2022-11-12T10:12:17.057Z,7.97
2022-11-12T10:15:40.630Z,6.38
2022-11-12T10:19:01.726Z,6.60
2022-11-12T10:22:20.017Z,4.85
2022-11-12T10:28:18.228Z,6.40
2022-11-12T10:31:17.045Z,7.15
2022-11-12T10:34:23.641Z,6.63
2022-11-12T10:37:34.280Z,13.40
2022-11-12T10:40:21.469Z,5.95
2022-11-12T10:43:16.769Z,5.75
2022-11-12T10:46:39.056Z,6.18
2022-11-12T10:49:26.613Z,6.85
2022-11-12T10:52:25.262Z,6.90
2022-11-12T10:55:20.556Z,7.68
2022-11-12T10:58:10.266Z,8.32
2022-11-12T11:01:16.084Z,7.13
2022-11-12T11:04:03.073Z,7.95
2022-11-12T11:06:58.973Z,10.18
2022-11-12T11:10:00.643Z,7.07
2022-11-12T11:12:47.119Z,9.43
2022-11-12T11:15:34.113Z,7.53
2022-11-12T11:18:21.127Z,5.97
2022-11-12T11:21:22.168Z,6.15
2022-11-12T11:24:38.807Z,8.15
2022-11-12T11:28:13.230Z,4.95
2022-11-12T11:31:26.473Z,9.18
2022-11-12T11:34:33.607Z,8.00
2022-11-12T11:37:44.349Z,14.55
2022-11-12T11:40:46.000Z,4.80
2022-11-12T11:43:53.262Z,6.43
2022-11-12T11:46:59.225Z,5.78
2022-11-12T11:50:10.408Z,5.82
2022-11-12T11:53:30.365Z,8.00
2022-11-12T11:56:39.567Z,5.70
2022-11-12T11:59:46.029Z,4.93
2022-11-12T12:02:53.089Z,6.20
2022-11-12T12:05:51.448Z,12.02
2022-11-12T12:09:03.744Z,9.73
2022-11-12T12:12:23.012Z,7.63
2022-11-12T12:15:47.914Z,11.23
2022-11-12T12:18:48.606Z,10.30
2022-11-12T12:21:39.327Z,6.70
2022-11-12T12:24:45.996Z,8.93
2022-11-12T12:27:37.416Z,8.55
2022-11-12T12:30:25.526Z,6.80
2022-11-12T12:33:31.161Z,11.73
2022-11-12T12:36:26.407Z,18.80
2022-11-12T12:39:48.923Z,23.60
2022-11-12T12:42:47.702Z,7.63
2022-11-12T12:45:44.742Z,9.45
2022-11-12T12:48:53.135Z,12.80
2022-11-12T12:51:39.432Z,18.75
2022-11-12T12:54:35.069Z,15.43
2022-11-12T12:57:34.507Z,30.80
2022-11-12T13:00:47.779Z,66.38
2022-11-12T13:03:46.509Z,43.15
2022-11-12T13:06:39.775Z,17.33
2022-11-12T13:09:28.915Z,11.40
2022-11-12T13:12:18.193Z,14.40
2022-11-12T13:15:16.353Z,17.73
2022-11-12T13:18:03.039Z,7.07
2022-11-12T13:21:08.302Z,5.97
2022-11-12T13:24:09.529Z,9.57
2022-11-12T13:26:59.426Z,11.02
2022-11-12T13:29:48.369Z,7.82
2022-11-12T13:32:42.862Z,11.68
2022-11-12T13:35:35.965Z,7.90
2022-11-12T13:38:23.083Z,8.70
2022-11-12T13:41:19.905Z,12.77
2022-11-12T13:44:13.477Z,13.98
2022-11-12T13:49:48.993Z,4.70
2022-11-12T13:52:37.154Z,5.32
2022-11-12T13:55:24.402Z,12.52
2022-11-12T13:58:28.400Z,13.32
2022-11-12T14:01:21.517Z,18.92
2022-11-12T14:04:12.463Z,11.40
2022-11-12T14:07:34.696Z,18.50
2022-11-12T14:10:31.827Z,10.10
2022-11-12T14:13:55.535Z,12.70
2022-11-12T14:16:59.489Z,9.75
2022-11-12T14:20:08.525Z,11.27
2022-11-12T14:22:55.655Z,8.63
2022-11-12T14:25:49.460Z,9.18
2022-11-12T14:28:37.931Z,6.60
2022-11-12T14:31:26.082Z,15.38
2022-11-12T14:34:27.763Z,12.25
2022-11-12T14:37:43.448Z,41.78
2022-11-12T14:40:37.976Z,20.65
2022-11-12T14:43:38.772Z,28.08
2022-11-12T14:46:39.729Z,22.58
2022-11-12T14:49:45.103Z,15.50
2022-11-12T14:52:40.995Z,23.17
2022-11-12T14:55:50.777Z,21.10
2022-11-12T14:58:40.414Z,88.22
2022-11-12T15:04:51.841Z,35.88
2022-11-12T15:07:56.733Z,28.42
2022-11-12T15:10:46.036Z,22.85
2022-11-12T15:13:40.613Z,33.95
2022-11-12T15:16:30.936Z,40.10
2022-11-12T15:19:27.458Z,13.98
2022-11-12T15:22:22.416Z,14.50
2022-11-12T15:25:32.417Z,23.02
2022-11-12T15:28:26.295Z,20.45
2022-11-12T15:31:15.549Z,17.75
2022-11-12T15:34:28.171Z,25.95
2022-11-12T15:37:20.447Z,27.02
2022-11-12T15:40:18.844Z,24.45
2022-11-12T15:43:15.743Z,21.23
2022-11-12T15:46:02.830Z,19.92
2022-11-12T15:48:55.496Z,19.23
2022-11-12T15:51:42.736Z,150.38
2022-11-12T15:54:29.081Z,53.33
2022-11-12T15:57:18.768Z,58.70
2022-11-12T16:00:13.753Z,27.95
2022-11-12T16:03:12.701Z,46.33
2022-11-12T16:06:02.671Z,13.70
2022-11-12T16:08:53.600Z,10.20
2022-11-12T16:11:40.102Z,11.15
2022-11-12T16:14:27.716Z,11.15
2022-11-12T16:17:18.871Z,14.57
2022-11-12T16:20:13.978Z,14.55
2022-11-12T16:23:01.414Z,16.55
2022-11-12T16:25:48.330Z,25.50
2022-11-12T16:28:36.738Z,37.60
2022-11-12T16:31:24.616Z,39.83
2022-11-12T16:34:11.653Z,56.35
2022-11-12T16:36:58.808Z,53.83
2022-11-12T16:42:31.811Z,21.30
2022-11-12T16:45:20.927Z,33.65
2022-11-12T16:48:18.605Z,53.88
2022-11-12T16:51:05.116Z,16.08
2022-11-12T16:53:51.718Z,40.92
2022-11-12T16:56:38.459Z,39.45
2022-11-12T16:59:25.011Z,34.88
2022-11-12T17:02:15.840Z,31.60
2022-11-12T17:05:08.025Z,28.15
2022-11-12T17:07:58.358Z,22.55
2022-11-12T17:10:45.425Z,25.13
2022-11-12T17:13:31.831Z,33.50
2022-11-12T17:16:18.071Z,38.63
2022-11-12T17:19:05.736Z,46.15
2022-11-12T17:21:52.576Z,29.55
2022-11-12T17:24:39.170Z,28.70
2022-11-12T17:27:25.919Z,13.80
2022-11-12T17:30:13.105Z,14.93
2022-11-12T17:33:00.326Z,16.35
2022-11-12T17:35:46.910Z,24.63
2022-11-12T17:38:33.374Z,25.25
2022-11-12T17:41:19.696Z,28.92
2022-11-12T17:44:06.501Z,24.33
2022-11-12T17:46:53.081Z,22.92
2022-11-12T17:49:40.043Z,20.75
2022-11-12T17:52:26.458Z,15.55
2022-11-12T17:55:13.558Z,18.90
2022-11-12T17:58:00.097Z,33.97
2022-11-12T18:00:46.938Z,40.95
2022-11-12T18:03:33.550Z,51.85
2022-11-12T18:06:25.659Z,46.33
2022-11-12T18:09:14.990Z,50.03
2022-11-12T18:12:01.301Z,49.38
2022-11-12T18:14:47.857Z,40.72
2022-11-12T18:17:34.887Z,35.58
2022-11-12T18:20:21.277Z,32.00
2022-11-12T18:23:07.587Z,42.13
2022-11-12T18:25:54.289Z,142.77
2022-11-12T18:28:44.014Z,38.08
2022-11-12T18:31:30.670Z,21.48
2022-11-12T18:34:16.911Z,26.23
2022-11-12T18:37:03.231Z,29.88
2022-11-12T18:39:49.541Z,43.33
2022-11-12T18:42:36.178Z,40.20
2022-11-12T18:45:22.384Z,28.45
2022-11-12T18:48:08.647Z,20.25
2022-11-12T18:51:09.191Z,26.35
2022-11-12T18:53:55.484Z,24.75
2022-11-12T18:56:42.973Z,27.92
2022-11-12T18:59:31.869Z,34.97
2022-11-12T19:02:18.750Z,23.35
2022-11-12T19:05:05.461Z,26.67
2022-11-12T19:07:51.878Z,22.15
2022-11-12T19:10:38.845Z,10.90
2022-11-12T19:13:25.858Z,24.90
2022-11-12T19:16:17.433Z,23.80
2022-11-12T19:19:03.814Z,23.95
2022-11-12T19:21:50.412Z,22.33
2022-11-12T19:24:37.263Z,22.60
2022-11-12T19:27:23.766Z,15.95
2022-11-12T19:30:10.854Z,14.52
2022-11-12T19:32:57.270Z,16.45
2022-11-12T19:35:43.688Z,16.10
2022-11-12T19:38:30.847Z,28.80
2022-11-12T19:44:07.020Z,24.50
2022-11-12T19:46:53.403Z,22.85
2022-11-12T19:49:39.698Z,14.50
2022-11-12T19:52:26.540Z,12.63
2022-11-12T19:55:13.334Z,13.30
2022-11-12T19:58:01.320Z,12.65
2022-11-12T20:00:47.670Z,27.92
2022-11-12T20:03:34.605Z,29.23
2022-11-12T20:06:23.662Z,43.40
2022-11-12T20:09:10.374Z,38.25
2022-11-12T20:11:56.929Z,32.53
2022-11-12T20:14:43.262Z,33.80
2022-11-12T20:17:32.718Z,22.52
2022-11-12T20:20:19.333Z,27.88
2022-11-12T20:23:05.813Z,30.98
2022-11-12T20:25:53.069Z,29.90
2022-11-12T20:31:26.972Z,26.00
2022-11-12T20:34:14.018Z,23.17
2022-11-12T20:37:00.365Z,19.20
2022-11-12T20:39:46.883Z,22.17
2022-11-12T20:42:33.237Z,21.70
2022-11-12T20:45:20.007Z,22.30
2022-11-12T20:48:07.016Z,19.50
2022-11-12T20:54:14.942Z,22.20
2022-11-12T20:57:03.507Z,24.38
2022-11-12T20:59:51.506Z,28.27
2022-11-12T21:02:38.329Z,30.80
2022-11-12T21:05:25.305Z,18.98
2022-11-12T21:11:00.188Z,20.23
2022-11-12T21:13:46.595Z,24.48
2022-11-12T21:16:34.408Z,13.25
2022-11-12T21:19:21.253Z,12.73
2022-11-12T21:22:07.745Z,11.60
2022-11-12T21:24:54.079Z,10.40
2022-11-12T21:27:40.615Z,9.80
2022-11-12T21:30:27.121Z,11.15
2022-11-12T21:33:13.712Z,14.60
2022-11-12T21:36:00.384Z,16.92
2022-11-12T21:38:47.624Z,15.73
2022-11-12T21:44:21.414Z,17.80
2022-11-12T21:47:08.135Z,19.27
2022-11-12T21:49:54.905Z,15.63
2022-11-12T21:52:41.637Z,14.45
2022-11-12T21:55:27.801Z,14.25
2022-11-12T21:58:14.219Z,14.15
2022-11-12T22:01:20.013Z,15.63
2022-11-12T22:04:08.479Z,20.80
2022-11-12T22:06:54.901Z,17.50
2022-11-12T22:09:41.147Z,21.55
2022-11-12T22:12:27.562Z,40.40
2022-11-12T22:15:13.752Z,54.17
2022-11-12T22:18:00.228Z,41.25
2022-11-12T22:20:57.530Z,19.85
2022-11-12T22:23:44.112Z,11.45
2022-11-12T22:26:30.941Z,12.07
2022-11-12T22:29:17.412Z,13.50
2022-11-12T22:32:03.991Z,12.35
2022-11-12T22:34:50.659Z,13.32
2022-11-12T22:37:36.888Z,11.15
2022-11-12T22:40:23.310Z,10.48
2022-11-12T22:43:09.648Z,9.18
2022-11-12T22:45:55.823Z,9.95
2022-11-12T22:48:42.792Z,10.40
2022-11-12T22:51:31.979Z,11.15
2022-11-12T22:54:18.537Z,10.65
2022-11-12T22:57:04.785Z,9.52
2022-11-12T22:59:51.119Z,9.98
2022-11-12T23:02:37.775Z,12.85
2022-11-12T23:05:24.106Z,13.75
2022-11-12T23:08:10.517Z,12.02
2022-11-12T23:10:57.149Z,10.55
2022-11-12T23:13:44.332Z,8.88
2022-11-12T23:16:31.642Z,12.32
2022-11-12T23:19:17.872Z,8.80
2022-11-12T23:22:07.900Z,11.43
2022-11-12T23:24:55.013Z,18.90
2022-11-12T23:27:41.215Z,43.05
2022-11-12T23:30:27.646Z,54.00
2022-11-12T23:33:14.150Z,19.88
2022-11-12T23:36:10.760Z,10.65
2022-11-12T23:38:57.959Z,10.15
2022-11-12T23:41:44.204Z,15.98
2022-11-12T23:44:30.425Z,13.70
2022-11-12T23:47:16.945Z,13.05
2022-11-12T23:50:04.009Z,12.30
2022-11-12T23:52:50.170Z,15.63
2022-11-12T23:55:38.651Z,12.52
2022-11-12T23:58:25.282Z,11.90
